Antonino, Kansas
Current Conditions -  °F | °C
As of 5:55 PM on Sunday 21 Dec 2014 (Local Time) from KHYS Reporting Station
Broken Clouds Broken Clouds  
Wind Chill:   Ceiling: 2600
Heat Index:   Visibility: 10mi
Dew Point:   Wind: 13mph
Humidity: 70%   Direction: 160°SSE
Pressure: 29.61"   Gusts: NA
Location:  38.8338°N, 99.3297°W
Report Text: KHYS 212355Z AUTO 16011KT 10SM BKN026 BKN120 06/01 A2961 RMK AO1 10070 20060 400701040 57017
Loading
Personal Weather Stations






























Interactive Weather Map New forecast layout! Learn more

10-Day Weather Forecast

Advertisements
Track Severe Weather on mobile